Flower, West Virginia
Current Conditions -  °F | °C
As of 5:55 AM on Friday 19 Dec 2014 (Local Time) from KW22 Reporting Station
Overcast Overcast  
Wind Chill: 17°   Ceiling: 1400
Heat Index: 25°   Visibility: 10mi
Dew Point: 21°   Wind: 7mph
Humidity: 86%   Direction: 250°WSW
Pressure: 30.17"   Gusts: NA
Location:  38.837°N, 80.8415°W
Report Text: KW22 191055Z AUTO 25006KT 10SM OVC014 M04/M06 A3017 RMK AO2
Loading
Personal Weather Stations






























Interactive Weather Map New forecast layout! Learn more

10-Day Weather Forecast

Advertisements
Track Severe Weather on mobile